SUJOL WITT-AGGH
Flight info
| Callsign | SUJOL |
|---|---|
| Flight time | N/A |
| Altitude | 39000 |
| Route | OPUNG W12 ISVUR N563 SALAX A576 SJ A464 IRTAD B338 AKVOM M630 JUNHA M774 OBDOS L504 PNK W35 MKS A215 PY H674 KALKO B598 PAKMI PAKMI1A |
| Aircraft | B736/M-SDE2E3FGHIRWXY/LB1 |
Departure
| Time | 2026-04-14 07:21 |
|---|---|
| Airport | Sultan Iskandar Muda International Airport (WITT) |
Arrival
| Time | N/A |
|---|---|
| Airport | Honiara International Airport (AGGH) |
| Time | Latitude | Longitude | Altitude | Speed | Heading |
|---|---|---|---|---|---|
| 2026-04-14 06:38 | 5.51987 | 95.41787 | 75 ft | 0 kts | 259° |
| 2026-04-14 07:13 | 5.51989 | 95.41798 | 57 ft | 4 kts | 260° |
| 2026-04-14 07:13 | 5.51994 | 95.41825 | 59 ft | 4 kts | 262° |
| 2026-04-14 07:13 | 5.51997 | 95.41852 | 64 ft | 4 kts | 264° |
| 2026-04-14 07:13 | 5.51999 | 95.41879 | 66 ft | 4 kts | 273° |
| 2026-04-14 07:14 | 5.51997 | 95.41894 | 63 ft | 1 kts | 280° |
| 2026-04-14 07:14 | 5.51997 | 95.41896 | 64 ft | 0 kts | 280° |
| 2026-04-14 07:16 | 5.51996 | 95.41890 | 66 ft | 2 kts | 262° |
| 2026-04-14 07:17 | 5.51986 | 95.41890 | 61 ft | 1 kts | 154° |
| 2026-04-14 07:17 | 5.51980 | 95.41908 | 62 ft | 5 kts | 112° |
| 2026-04-14 07:17 | 5.51944 | 95.41942 | 55 ft | 10 kts | 167° |
| 2026-04-14 07:17 | 5.51865 | 95.41959 | 62 ft | 14 kts | 168° |
| 2026-04-14 07:18 | 5.51761 | 95.41980 | 58 ft | 17 kts | 168° |
| 2026-04-14 07:18 | 5.51643 | 95.42005 | 59 ft | 17 kts | 167° |
| 2026-04-14 07:18 | 5.51528 | 95.42029 | 55 ft | 16 kts | 168° |
| 2026-04-14 07:18 | 5.51419 | 95.42051 | 57 ft | 16 kts | 167° |
| 2026-04-14 07:19 | 5.51313 | 95.42073 | 62 ft | 15 kts | 169° |
| 2026-04-14 07:19 | 5.51232 | 95.42124 | 56 ft | 15 kts | 96° |
| 2026-04-14 07:19 | 5.51252 | 95.42222 | 60 ft | 14 kts | 72° |
| 2026-04-14 07:19 | 5.51312 | 95.42241 | 56 ft | 0 kts | 348° |
| 2026-04-14 07:20 | 5.51448 | 95.42212 | 59 ft | 54 kts | 348° |
| 2026-04-14 07:20 | 5.52052 | 95.42089 | 59 ft | 120 kts | 348° |
| 2026-04-14 07:20 | 5.53002 | 95.41893 | 252 ft | 152 kts | 348° |
| 2026-04-14 07:21 | 5.54062 | 95.41668 | 885 ft | 159 kts | 348° |
| 2026-04-14 07:21 | 5.55143 | 95.41441 | 1575 ft | 157 kts | 348° |
| 2026-04-14 07:21 | 5.56204 | 95.41224 | 2213 ft | 158 kts | 353° |
| 2026-04-14 07:21 | 5.57260 | 95.41430 | 2807 ft | 161 kts | 33° |
| 2026-04-14 07:22 | 5.58007 | 95.42281 | 3380 ft | 165 kts | 54° |
| 2026-04-14 07:22 | 5.58679 | 95.43292 | 3842 ft | 181 kts | 55° |
| 2026-04-14 07:22 | 5.59409 | 95.44371 | 4364 ft | 193 kts | 53° |
| 2026-04-14 07:22 | 5.60241 | 95.45513 | 4731 ft | 211 kts | 52° |
| 2026-04-14 07:23 | 5.61180 | 95.46734 | 5035 ft | 234 kts | 51° |
| 2026-04-14 07:23 | 5.62250 | 95.48085 | 5298 ft | 260 kts | 50° |
| 2026-04-14 07:23 | 5.63419 | 95.49549 | 5811 ft | 273 kts | 50° |
| 2026-04-14 07:23 | 5.64368 | 95.51183 | 6509 ft | 278 kts | 72° |
| 2026-04-14 07:24 | 5.64502 | 95.53120 | 7314 ft | 282 kts | 99° |
| 2026-04-14 07:24 | 5.63774 | 95.54953 | 8121 ft | 287 kts | 121° |
| 2026-04-14 07:24 | 5.62660 | 95.56633 | 8955 ft | 290 kts | 123° |
| 2026-04-14 07:24 | 5.61482 | 95.58290 | 9839 ft | 293 kts | 124° |
| 2026-04-14 07:25 | 5.60268 | 95.59979 | 10421 ft | 308 kts | 124° |
| 2026-04-14 07:25 | 5.58982 | 95.61780 | 10604 ft | 334 kts | 124° |
| 2026-04-14 07:25 | 5.57588 | 95.63746 | 10799 ft | 357 kts | 124° |
| 2026-04-14 07:25 | 5.56118 | 95.65830 | 11221 ft | 369 kts | 124° |
| 2026-04-14 07:26 | 5.54636 | 95.67939 | 11990 ft | 371 kts | 124° |
| 2026-04-14 07:26 | 5.53144 | 95.70071 | 12738 ft | 375 kts | 124° |
| 2026-04-14 07:26 | 5.51635 | 95.72229 | 13443 ft | 380 kts | 124° |
| 2026-04-14 07:26 | 5.50120 | 95.74399 | 14124 ft | 384 kts | 124° |
| 2026-04-14 07:27 | 5.48583 | 95.76600 | 14823 ft | 386 kts | 124° |
| 2026-04-14 07:27 | 5.47034 | 95.78818 | 15486 ft | 389 kts | 124° |
| 2026-04-14 07:27 | 5.45471 | 95.81058 | 16073 ft | 394 kts | 124° |
| 2026-04-14 07:27 | 5.43887 | 95.83326 | 16669 ft | 398 kts | 124° |
| 2026-04-14 07:28 | 5.42289 | 95.85615 | 17286 ft | 402 kts | 124° |
| 2026-04-14 07:28 | 5.40680 | 95.87918 | 17878 ft | 405 kts | 124° |
| 2026-04-14 07:28 | 5.39012 | 95.90216 | 18409 ft | 409 kts | 130° |
| 2026-04-14 07:28 | 5.36860 | 95.92109 | 18856 ft | 413 kts | 144° |
| 2026-04-14 07:29 | 5.34510 | 95.93771 | 19361 ft | 415 kts | 145° |
| 2026-04-14 07:29 | 5.32156 | 95.95410 | 19795 ft | 419 kts | 145° |
| 2026-04-14 07:29 | 5.29742 | 95.97102 | 20254 ft | 423 kts | 144° |
| 2026-04-14 07:29 | 5.27328 | 95.98812 | 20717 ft | 426 kts | 144° |
| 2026-04-14 07:30 | 5.24900 | 96.00549 | 21148 ft | 429 kts | 144° |
| 2026-04-14 07:30 | 5.22466 | 96.02300 | 21587 ft | 432 kts | 144° |
| 2026-04-14 07:30 | 5.20010 | 96.04072 | 22013 ft | 435 kts | 144° |
| 2026-04-14 07:30 | 5.17574 | 96.05830 | 22417 ft | 438 kts | 144° |
| 2026-04-14 07:31 | 5.15094 | 96.07620 | 22830 ft | 441 kts | 144° |
| 2026-04-14 07:31 | 5.12592 | 96.09424 | 23226 ft | 443 kts | 144° |
| 2026-04-14 07:31 | 5.10080 | 96.11234 | 23583 ft | 446 kts | 144° |
| 2026-04-14 07:31 | 5.07634 | 96.13160 | 23881 ft | 449 kts | 135° |
| 2026-04-14 07:32 | 5.05741 | 96.15662 | 24208 ft | 451 kts | 122° |
| 2026-04-14 07:32 | 5.04085 | 96.18337 | 24559 ft | 452 kts | 122° |
| 2026-04-14 07:32 | 5.02439 | 96.21034 | 24841 ft | 455 kts | 122° |
| 2026-04-14 07:32 | 5.00780 | 96.23747 | 25105 ft | 458 kts | 122° |
| 2026-04-14 07:33 | 4.99101 | 96.26470 | 25400 ft | 460 kts | 122° |
| 2026-04-14 07:33 | 4.97428 | 96.29162 | 25700 ft | 461 kts | 122° |
| 2026-04-14 07:33 | 4.95719 | 96.31895 | 25999 ft | 463 kts | 122° |
| 2026-04-14 07:34 | 4.90532 | 96.40148 | 26799 ft | 469 kts | 122° |
| 2026-04-14 07:34 | 4.88783 | 96.42926 | 27043 ft | 471 kts | 122° |
| 2026-04-14 07:34 | 4.87032 | 96.45710 | 27299 ft | 473 kts | 122° |
| 2026-04-14 07:35 | 4.85273 | 96.48507 | 27545 ft | 475 kts | 122° |
| 2026-04-14 07:35 | 4.83506 | 96.51316 | 27775 ft | 477 kts | 122° |
| 2026-04-14 07:35 | 4.81733 | 96.54135 | 27985 ft | 479 kts | 122° |
| 2026-04-14 07:35 | 4.79979 | 96.56924 | 28197 ft | 480 kts | 122° |
| 2026-04-14 07:36 | 4.78191 | 96.59767 | 28404 ft | 482 kts | 122° |
| 2026-04-14 07:36 | 4.76399 | 96.62614 | 28597 ft | 484 kts | 122° |
| 2026-04-14 07:36 | 4.74595 | 96.65482 | 28802 ft | 486 kts | 122° |
| 2026-04-14 07:36 | 4.72788 | 96.68352 | 28979 ft | 487 kts | 122° |
| 2026-04-14 07:37 | 4.70976 | 96.71232 | 29169 ft | 489 kts | 122° |
| 2026-04-14 07:37 | 4.69160 | 96.74118 | 29418 ft | 489 kts | 122° |
| 2026-04-14 07:37 | 4.67344 | 96.77003 | 29719 ft | 488 kts | 122° |
| 2026-04-14 07:37 | 4.65536 | 96.79873 | 30036 ft | 487 kts | 122° |
| 2026-04-14 07:38 | 4.63727 | 96.82747 | 30304 ft | 486 kts | 122° |
| 2026-04-14 07:38 | 4.61925 | 96.85608 | 30617 ft | 485 kts | 123° |
| 2026-04-14 07:38 | 4.60151 | 96.88426 | 30987 ft | 482 kts | 123° |
| 2026-04-14 07:38 | 4.58357 | 96.91275 | 31397 ft | 478 kts | 123° |
| 2026-04-14 07:39 | 4.56588 | 96.94084 | 31795 ft | 476 kts | 123° |
| 2026-04-14 07:39 | 4.55416 | 96.95945 | 32035 ft | 475 kts | 123° |
| 2026-04-14 07:39 | 4.53081 | 96.99651 | 32565 ft | 472 kts | 123° |
| 2026-04-14 07:39 | 4.51326 | 97.02434 | 32986 ft | 470 kts | 123° |
| 2026-04-14 07:40 | 4.50166 | 97.04273 | 33265 ft | 469 kts | 123° |
| 2026-04-14 07:40 | 4.48421 | 97.07037 | 33669 ft | 468 kts | 123° |
| 2026-04-14 07:40 | 4.46687 | 97.09784 | 34045 ft | 467 kts | 123° |
| 2026-04-14 07:40 | 4.44954 | 97.12530 | 34418 ft | 465 kts | 123° |
| 2026-04-14 07:41 | 4.43228 | 97.15264 | 34814 ft | 463 kts | 123° |
| 2026-04-14 07:41 | 4.41510 | 97.17986 | 35224 ft | 460 kts | 123° |
| 2026-04-14 07:41 | 4.39796 | 97.20696 | 35607 ft | 458 kts | 123° |
| 2026-04-14 07:41 | 4.38086 | 97.23385 | 35992 ft | 456 kts | 122° |
| 2026-04-14 07:42 | 4.36380 | 97.26063 | 36337 ft | 455 kts | 122° |
| 2026-04-14 07:42 | 4.34673 | 97.28740 | 36623 ft | 455 kts | 122° |
| 2026-04-14 07:42 | 4.32972 | 97.31409 | 36913 ft | 455 kts | 122° |
| 2026-04-14 07:42 | 4.31293 | 97.34044 | 37223 ft | 454 kts | 122° |
| 2026-04-14 07:43 | 4.29591 | 97.36715 | 37525 ft | 453 kts | 122° |
| 2026-04-14 07:43 | 4.27893 | 97.39382 | 37823 ft | 453 kts | 122° |
| 2026-04-14 07:43 | 4.26201 | 97.42038 | 38117 ft | 452 kts | 122° |
| 2026-04-14 07:43 | 4.24506 | 97.44701 | 38429 ft | 451 kts | 122° |
| 2026-04-14 07:44 | 4.22823 | 97.47344 | 38715 ft | 450 kts | 121° |
| 2026-04-14 07:44 | 4.21140 | 97.49986 | 38954 ft | 449 kts | 121° |
| 2026-04-14 07:44 | 4.19462 | 97.52621 | 39205 ft | 448 kts | 121° |
| 2026-04-14 07:44 | 4.17787 | 97.55249 | 39442 ft | 447 kts | 121° |
| 2026-04-14 07:45 | 4.16115 | 97.57873 | 39652 ft | 447 kts | 121° |
| 2026-04-14 07:45 | 4.14468 | 97.60459 | 39878 ft | 445 kts | 121° |
| 2026-04-14 07:45 | 4.12804 | 97.63071 | 40139 ft | 444 kts | 121° |
| 2026-04-14 07:45 | 4.11144 | 97.65675 | 40314 ft | 444 kts | 121° |
| 2026-04-14 07:46 | 4.09481 | 97.68285 | 40476 ft | 444 kts | 121° |
| 2026-04-14 07:46 | 4.07821 | 97.70890 | 40675 ft | 443 kts | 122° |
| 2026-04-14 07:46 | 4.06156 | 97.73501 | 40892 ft | 442 kts | 122° |
| 2026-04-14 07:47 | 4.02827 | 97.78724 | 40947 ft | 445 kts | 122° |
| 2026-04-14 07:47 | 3.99505 | 97.83933 | 40940 ft | 442 kts | 122° |
| 2026-04-14 07:48 | 3.96199 | 97.89117 | 40934 ft | 440 kts | 122° |
| 2026-04-14 07:48 | 3.92906 | 97.94279 | 40931 ft | 439 kts | 122° |
| 2026-04-14 07:49 | 3.89644 | 97.99394 | 40942 ft | 438 kts | 122° |
| 2026-04-14 07:49 | 3.86358 | 98.04542 | 40921 ft | 439 kts | 122° |
| 2026-04-14 07:50 | 3.83069 | 98.09697 | 40925 ft | 439 kts | 122° |
| 2026-04-14 07:50 | 3.79766 | 98.14871 | 40921 ft | 440 kts | 122° |
| 2026-04-14 07:51 | 3.76462 | 98.20047 | 40912 ft | 442 kts | 122° |
| 2026-04-14 07:51 | 3.73164 | 98.25211 | 40905 ft | 443 kts | 122° |
| 2026-04-14 07:52 | 3.69834 | 98.30427 | 40906 ft | 444 kts | 122° |
| 2026-04-14 07:52 | 3.66499 | 98.35648 | 40905 ft | 445 kts | 122° |
| 2026-04-14 07:53 | 3.63156 | 98.40881 | 40897 ft | 446 kts | 122° |
| 2026-04-14 07:53 | 3.59806 | 98.46125 | 40900 ft | 447 kts | 122° |
| 2026-04-14 07:54 | 3.56454 | 98.51371 | 40903 ft | 447 kts | 122° |
| 2026-04-14 07:54 | 3.53123 | 98.56585 | 40904 ft | 447 kts | 122° |
| 2026-04-14 07:55 | 3.49882 | 98.61893 | 40891 ft | 447 kts | 115° |
| 2026-04-14 07:55 | 3.47361 | 98.67578 | 40901 ft | 446 kts | 112° |
| 2026-04-14 07:56 | 3.44935 | 98.73261 | 40897 ft | 446 kts | 113° |
| 2026-04-14 07:56 | 3.42456 | 98.79002 | 40903 ft | 446 kts | 113° |
| 2026-04-14 07:57 | 3.39979 | 98.84678 | 40901 ft | 446 kts | 113° |
| 2026-04-14 07:57 | 3.37488 | 98.90364 | 40899 ft | 446 kts | 113° |
| 2026-04-14 07:58 | 3.34994 | 98.96053 | 40895 ft | 446 kts | 113° |
| 2026-04-14 07:58 | 3.32500 | 99.01743 | 40892 ft | 446 kts | 113° |
| 2026-04-14 07:59 | 3.30009 | 99.07428 | 40894 ft | 446 kts | 113° |
| 2026-04-14 07:59 | 3.27532 | 99.13078 | 40891 ft | 446 kts | 113° |
| 2026-04-14 08:00 | 3.25037 | 99.18770 | 40885 ft | 446 kts | 113° |
| 2026-04-14 08:00 | 3.22541 | 99.24462 | 40886 ft | 446 kts | 113° |
| 2026-04-14 08:01 | 3.20047 | 99.30148 | 40883 ft | 446 kts | 113° |
| 2026-04-14 08:01 | 3.17554 | 99.35832 | 40887 ft | 446 kts | 113° |
| 2026-04-14 08:02 | 3.15078 | 99.41476 | 40878 ft | 446 kts | 113° |
| 2026-04-14 08:02 | 3.12581 | 99.47168 | 40879 ft | 446 kts | 113° |
| 2026-04-14 08:03 | 3.10080 | 99.52865 | 40880 ft | 446 kts | 113° |
| 2026-04-14 08:03 | 3.07579 | 99.58565 | 40879 ft | 447 kts | 114° |
| 2026-04-14 08:04 | 3.05078 | 99.64260 | 40876 ft | 447 kts | 114° |
| 2026-04-14 08:04 | 3.02591 | 99.69925 | 40875 ft | 447 kts | 114° |
| 2026-04-14 08:05 | 3.00085 | 99.75632 | 40877 ft | 447 kts | 114° |
| 2026-04-14 08:05 | 2.97579 | 99.81337 | 40874 ft | 448 kts | 114° |
| 2026-04-14 08:06 | 2.95074 | 99.87042 | 40875 ft | 448 kts | 114° |
| 2026-04-14 08:06 | 2.92578 | 99.92722 | 40874 ft | 448 kts | 114° |
| 2026-04-14 08:07 | 2.90071 | 99.98427 | 40870 ft | 449 kts | 114° |
| 2026-04-14 08:07 | 2.87555 | 100.04154 | 40869 ft | 449 kts | 114° |
| 2026-04-14 08:08 | 2.85042 | 100.09873 | 40873 ft | 449 kts | 114° |
| 2026-04-14 08:08 | 2.82526 | 100.15600 | 40870 ft | 449 kts | 114° |
| 2026-04-14 08:09 | 2.80011 | 100.21333 | 40873 ft | 450 kts | 114° |
| 2026-04-14 08:09 | 2.77493 | 100.27068 | 40869 ft | 450 kts | 113° |
| 2026-04-14 08:10 | 2.74987 | 100.32778 | 40866 ft | 450 kts | 113° |
| 2026-04-14 08:10 | 2.72467 | 100.38518 | 40868 ft | 451 kts | 113° |
| 2026-04-14 08:11 | 2.69943 | 100.44266 | 40871 ft | 451 kts | 113° |
| 2026-04-14 08:11 | 2.67417 | 100.50019 | 40868 ft | 452 kts | 113° |
| 2026-04-14 08:12 | 2.64888 | 100.55775 | 40864 ft | 452 kts | 113° |
| 2026-04-14 08:12 | 2.62371 | 100.61507 | 40865 ft | 452 kts | 113° |
| 2026-04-14 08:13 | 2.59838 | 100.67272 | 40861 ft | 452 kts | 113° |
| 2026-04-14 08:13 | 2.57304 | 100.73038 | 40861 ft | 452 kts | 113° |
| 2026-04-14 08:14 | 2.54768 | 100.78809 | 40862 ft | 452 kts | 113° |
| 2026-04-14 08:14 | 2.52249 | 100.84540 | 40860 ft | 452 kts | 113° |
| 2026-04-14 08:15 | 2.49718 | 100.90298 | 40858 ft | 452 kts | 113° |
| 2026-04-14 08:15 | 2.47190 | 100.96048 | 40856 ft | 451 kts | 113° |
| 2026-04-14 08:16 | 2.44663 | 101.01794 | 40858 ft | 451 kts | 113° |
| 2026-04-14 08:16 | 2.42138 | 101.07535 | 40857 ft | 451 kts | 113° |
| 2026-04-14 08:17 | 2.39615 | 101.13272 | 40853 ft | 450 kts | 113° |
| 2026-04-14 08:17 | 2.37092 | 101.19009 | 40853 ft | 450 kts | 113° |
| 2026-04-14 08:18 | 2.34568 | 101.24745 | 40854 ft | 450 kts | 113° |
| 2026-04-14 08:18 | 2.32044 | 101.30481 | 40859 ft | 451 kts | 113° |
| 2026-04-14 08:19 | 2.29518 | 101.36223 | 40850 ft | 451 kts | 113° |
| 2026-04-14 08:19 | 2.26988 | 101.41973 | 40854 ft | 451 kts | 113° |
| 2026-04-14 08:20 | 2.24473 | 101.47687 | 40849 ft | 451 kts | 113° |
| 2026-04-14 08:20 | 2.21939 | 101.53444 | 40852 ft | 452 kts | 113° |
| 2026-04-14 08:21 | 2.19419 | 101.59200 | 40848 ft | 452 kts | 113° |
| 2026-04-14 08:21 | 2.16942 | 101.64980 | 40847 ft | 452 kts | 113° |
| 2026-04-14 08:22 | 2.14472 | 101.70765 | 40847 ft | 452 kts | 113° |
| 2026-04-14 08:22 | 2.12000 | 101.76541 | 40842 ft | 452 kts | 113° |
| 2026-04-14 08:23 | 2.09540 | 101.82281 | 40845 ft | 452 kts | 113° |
| 2026-04-14 08:23 | 2.07059 | 101.88065 | 40842 ft | 451 kts | 113° |
| 2026-04-14 08:24 | 2.04586 | 101.93830 | 40839 ft | 451 kts | 113° |
| 2026-04-14 08:24 | 2.02127 | 101.99562 | 40841 ft | 451 kts | 113° |
| 2026-04-14 08:25 | 1.99656 | 102.05321 | 40845 ft | 450 kts | 113° |
| 2026-04-14 08:25 | 1.97186 | 102.11077 | 40841 ft | 450 kts | 113° |
| 2026-04-14 08:26 | 1.94717 | 102.16831 | 40843 ft | 450 kts | 113° |
| 2026-04-14 08:26 | 1.92665 | 102.21614 | 40843 ft | 450 kts | 113° |
| 2026-04-14 08:27 | 1.90199 | 102.27359 | 40841 ft | 449 kts | 113° |
| 2026-04-14 08:27 | 1.87733 | 102.33103 | 40839 ft | 449 kts | 113° |
| 2026-04-14 08:28 | 1.85271 | 102.38840 | 40835 ft | 449 kts | 113° |
| 2026-04-14 08:28 | 1.82803 | 102.44588 | 40834 ft | 450 kts | 114° |
| 2026-04-14 08:29 | 1.80348 | 102.50305 | 40838 ft | 450 kts | 114° |
| 2026-04-14 08:29 | 1.77882 | 102.56047 | 40835 ft | 450 kts | 114° |
| 2026-04-14 08:30 | 1.75408 | 102.61809 | 40838 ft | 451 kts | 114° |
| 2026-04-14 08:30 | 1.72928 | 102.67581 | 40839 ft | 451 kts | 114° |
| 2026-04-14 08:31 | 1.70461 | 102.73325 | 40832 ft | 452 kts | 114° |
| 2026-04-14 08:31 | 1.66733 | 102.82005 | 40834 ft | 452 kts | 114° |
| 2026-04-14 08:32 | 1.64262 | 102.87756 | 40833 ft | 453 kts | 114° |
| 2026-04-14 08:32 | 1.61779 | 102.93536 | 40833 ft | 453 kts | 114° |
| 2026-04-14 08:33 | 1.59288 | 102.99332 | 40831 ft | 453 kts | 114° |
| 2026-04-14 08:33 | 1.56817 | 103.05085 | 40829 ft | 453 kts | 114° |
| 2026-04-14 08:34 | 1.54335 | 103.10865 | 40828 ft | 453 kts | 114° |
| 2026-04-14 08:34 | 1.51867 | 103.16657 | 40831 ft | 452 kts | 114° |
| 2026-04-14 08:35 | 1.49404 | 103.22446 | 40829 ft | 452 kts | 113° |
| 2026-04-14 08:35 | 1.46937 | 103.28238 | 40828 ft | 452 kts | 113° |
| 2026-04-14 08:36 | 1.44489 | 103.33981 | 40827 ft | 451 kts | 113° |
| 2026-04-14 08:36 | 1.42008 | 103.39748 | 40825 ft | 451 kts | 113° |
| 2026-04-14 08:37 | 1.39523 | 103.45502 | 40828 ft | 451 kts | 113° |
| 2026-04-14 08:37 | 1.37042 | 103.51257 | 40826 ft | 450 kts | 113° |
| 2026-04-14 08:38 | 1.34562 | 103.57012 | 40829 ft | 450 kts | 113° |
| 2026-04-14 08:38 | 1.32100 | 103.62725 | 40826 ft | 450 kts | 113° |
| 2026-04-14 08:39 | 1.29613 | 103.68463 | 40829 ft | 449 kts | 113° |
| 2026-04-14 08:39 | 1.27125 | 103.74195 | 40827 ft | 449 kts | 113° |
| 2026-04-14 08:40 | 1.24644 | 103.79919 | 40827 ft | 449 kts | 113° |
| 2026-04-14 08:40 | 1.22161 | 103.85645 | 40829 ft | 449 kts | 114° |
| 2026-04-14 08:41 | 1.19494 | 103.91242 | 40832 ft | 448 kts | 116° |
| 2026-04-14 08:41 | 1.16741 | 103.96848 | 40824 ft | 449 kts | 116° |
| 2026-04-14 08:42 | 1.14018 | 104.02462 | 40830 ft | 449 kts | 116° |
| 2026-04-14 08:42 | 1.11302 | 104.08089 | 40826 ft | 449 kts | 116° |
| 2026-04-14 08:43 | 1.08584 | 104.13715 | 40829 ft | 450 kts | 116° |
| 2026-04-14 08:43 | 1.05233 | 104.18957 | 40849 ft | 449 kts | 135° |
| 2026-04-14 08:44 | 1.00168 | 104.22500 | 40859 ft | 450 kts | 154° |
| 2026-04-14 08:44 | 0.97390 | 104.23951 | 40799 ft | 450 kts | 143° |
| 2026-04-14 08:44 | 0.95144 | 104.26094 | 40847 ft | 447 kts | 126° |
| 2026-04-14 08:45 | 0.93610 | 104.28789 | 40825 ft | 447 kts | 110° |
| 2026-04-14 08:45 | 0.92863 | 104.31804 | 40851 ft | 447 kts | 98° |
| 2026-04-14 08:45 | 0.92101 | 104.37988 | 40837 ft | 449 kts | 96° |
| 2026-04-14 08:46 | 0.91347 | 104.44157 | 40829 ft | 451 kts | 97° |
| 2026-04-14 08:46 | 0.90506 | 104.50376 | 40832 ft | 452 kts | 98° |
| 2026-04-14 08:47 | 0.89423 | 104.56573 | 40837 ft | 453 kts | 101° |
| 2026-04-14 08:47 | 0.88139 | 104.62738 | 40834 ft | 453 kts | 102° |
| 2026-04-14 08:48 | 0.86857 | 104.68911 | 40837 ft | 453 kts | 102° |
| 2026-04-14 08:48 | 0.85611 | 104.75040 | 40839 ft | 453 kts | 101° |
| 2026-04-14 08:49 | 0.84371 | 104.81211 | 40840 ft | 452 kts | 101° |
| 2026-04-14 08:49 | 0.83133 | 104.87376 | 40835 ft | 452 kts | 101° |
| 2026-04-14 08:50 | 0.81897 | 104.93527 | 40841 ft | 451 kts | 101° |
| 2026-04-14 08:50 | 0.80669 | 104.99634 | 40841 ft | 450 kts | 101° |
| 2026-04-14 08:51 | 0.79436 | 105.05765 | 40842 ft | 450 kts | 101° |
| 2026-04-14 08:51 | 0.78204 | 105.11893 | 40840 ft | 449 kts | 101° |
| 2026-04-14 08:52 | 0.76974 | 105.18012 | 40843 ft | 449 kts | 101° |
| 2026-04-14 08:52 | 0.75744 | 105.24126 | 40840 ft | 449 kts | 101° |
| 2026-04-14 08:53 | 0.74514 | 105.30243 | 40842 ft | 448 kts | 101° |
| 2026-04-14 08:53 | 0.73285 | 105.36351 | 40842 ft | 448 kts | 101° |
| 2026-04-14 08:54 | 0.72058 | 105.42455 | 40840 ft | 448 kts | 101° |
| 2026-04-14 08:54 | 0.70828 | 105.48566 | 40841 ft | 448 kts | 101° |
| 2026-04-14 08:55 | 0.69600 | 105.54673 | 40843 ft | 448 kts | 101° |
| 2026-04-14 08:55 | 0.68371 | 105.60779 | 40841 ft | 448 kts | 101° |
| 2026-04-14 08:56 | 0.67148 | 105.66857 | 40842 ft | 448 kts | 101° |
| 2026-04-14 08:56 | 0.65918 | 105.72975 | 40844 ft | 448 kts | 101° |
| 2026-04-14 08:57 | 0.64688 | 105.79091 | 40840 ft | 449 kts | 101° |
| 2026-04-14 08:57 | 0.63458 | 105.85204 | 40840 ft | 448 kts | 101° |
| 2026-04-14 08:58 | 0.62229 | 105.91316 | 40841 ft | 448 kts | 101° |
| 2026-04-14 08:58 | 0.61008 | 105.97387 | 40843 ft | 448 kts | 101° |
| 2026-04-14 08:59 | 0.59779 | 106.03493 | 40840 ft | 448 kts | 101° |
| 2026-04-14 08:59 | 0.58551 | 106.09599 | 40842 ft | 448 kts | 101° |
| 2026-04-14 09:00 | 0.57323 | 106.15703 | 40842 ft | 447 kts | 101° |
| 2026-04-14 09:00 | 0.56096 | 106.21801 | 40841 ft | 447 kts | 101° |
| 2026-04-14 09:01 | 0.54869 | 106.27897 | 40840 ft | 447 kts | 101° |
| 2026-04-14 09:01 | 0.53653 | 106.33941 | 40840 ft | 446 kts | 101° |
| 2026-04-14 09:02 | 0.52429 | 106.40023 | 40837 ft | 446 kts | 101° |
| 2026-04-14 09:02 | 0.51205 | 106.46104 | 40840 ft | 446 kts | 101° |
| 2026-04-14 09:03 | 0.49983 | 106.52177 | 40842 ft | 445 kts | 101° |
| 2026-04-14 09:03 | 0.48761 | 106.58249 | 40838 ft | 445 kts | 101° |
| 2026-04-14 09:04 | 0.47540 | 106.64313 | 40839 ft | 445 kts | 101° |
| 2026-04-14 09:04 | 0.46320 | 106.70374 | 40839 ft | 445 kts | 101° |
| 2026-04-14 09:05 | 0.45101 | 106.76432 | 40844 ft | 444 kts | 101° |
| 2026-04-14 09:05 | 0.43891 | 106.82445 | 40843 ft | 444 kts | 101° |
| 2026-04-14 09:06 | 0.42672 | 106.88499 | 40838 ft | 444 kts | 101° |
| 2026-04-14 09:06 | 0.41453 | 106.94552 | 40840 ft | 444 kts | 101° |
| 2026-04-14 09:07 | 0.40233 | 107.00602 | 40840 ft | 444 kts | 101° |
| 2026-04-14 09:07 | 0.39010 | 107.06659 | 40836 ft | 444 kts | 101° |
| 2026-04-14 09:08 | 0.37796 | 107.12677 | 40839 ft | 445 kts | 101° |
| 2026-04-14 09:08 | 0.36573 | 107.18739 | 40837 ft | 445 kts | 101° |
| 2026-04-14 09:09 | 0.35351 | 107.24800 | 40840 ft | 445 kts | 101° |
| 2026-04-14 09:09 | 0.34127 | 107.30866 | 40841 ft | 445 kts | 101° |
| 2026-04-14 09:10 | 0.32903 | 107.36935 | 40840 ft | 446 kts | 101° |
| 2026-04-14 09:10 | 0.31676 | 107.43017 | 40838 ft | 446 kts | 101° |
| 2026-04-14 09:11 | 0.30456 | 107.49062 | 40840 ft | 446 kts | 101° |
| 2026-04-14 09:11 | 0.29229 | 107.55147 | 40836 ft | 447 kts | 101° |
| 2026-04-14 09:12 | 0.28001 | 107.61231 | 40836 ft | 447 kts | 101° |
| 2026-04-14 09:12 | 0.26773 | 107.67321 | 40836 ft | 447 kts | 101° |
| 2026-04-14 09:13 | 0.25544 | 107.73412 | 40834 ft | 447 kts | 101° |
| 2026-04-14 09:13 | 0.24314 | 107.79504 | 40837 ft | 447 kts | 101° |
| 2026-04-14 09:14 | 0.23084 | 107.85600 | 40839 ft | 447 kts | 101° |
| 2026-04-14 09:14 | 0.21865 | 107.91645 | 40835 ft | 446 kts | 101° |
| 2026-04-14 09:15 | 0.20638 | 107.97725 | 40836 ft | 446 kts | 101° |
| 2026-04-14 09:15 | 0.19413 | 108.03794 | 40835 ft | 446 kts | 101° |
| 2026-04-14 09:16 | 0.18395 | 108.08841 | 40833 ft | 445 kts | 101° |
| 2026-04-14 09:16 | 0.17169 | 108.14914 | 40833 ft | 445 kts | 101° |
| 2026-04-14 09:17 | 0.15947 | 108.20972 | 40832 ft | 444 kts | 101° |
| 2026-04-14 09:17 | 0.14732 | 108.26991 | 40833 ft | 444 kts | 101° |
| 2026-04-14 09:18 | 0.13510 | 108.33047 | 40833 ft | 444 kts | 101° |
| 2026-04-14 09:18 | 0.12290 | 108.39093 | 40837 ft | 443 kts | 101° |
| 2026-04-14 09:19 | 0.11071 | 108.45134 | 40836 ft | 443 kts | 101° |
| 2026-04-14 09:19 | 0.09861 | 108.51129 | 40836 ft | 443 kts | 101° |
| 2026-04-14 09:20 | 0.08644 | 108.57161 | 40837 ft | 442 kts | 101° |
| 2026-04-14 09:20 | 0.07429 | 108.63180 | 40832 ft | 442 kts | 101° |
| 2026-04-14 09:21 | 0.06215 | 108.69199 | 40831 ft | 441 kts | 101° |
| 2026-04-14 09:21 | 0.05001 | 108.75212 | 40835 ft | 441 kts | 101° |
| 2026-04-14 09:22 | 0.03789 | 108.81218 | 40836 ft | 440 kts | 101° |
| 2026-04-14 09:22 | 0.02585 | 108.87184 | 40832 ft | 440 kts | 101° |
| 2026-04-14 09:23 | 0.01376 | 108.93176 | 40833 ft | 439 kts | 101° |
| 2026-04-14 09:23 | 0.00167 | 108.99167 | 40831 ft | 439 kts | 101° |
| 2026-04-14 09:24 | -0.01071 | 109.05139 | 40831 ft | 438 kts | 101° |
| 2026-04-14 09:24 | -0.02338 | 109.11094 | 40831 ft | 438 kts | 101° |
| 2026-04-14 09:25 | -0.03593 | 109.17013 | 40837 ft | 438 kts | 101° |
| 2026-04-14 09:25 | -0.04852 | 109.22975 | 40828 ft | 438 kts | 101° |
| 2026-04-14 09:26 | -0.06111 | 109.28942 | 40831 ft | 438 kts | 101° |
| 2026-04-14 09:26 | -0.07381 | 109.34897 | 40829 ft | 439 kts | 104° |
| 2026-04-14 09:27 | -0.09666 | 109.40496 | 40823 ft | 441 kts | 120° |
| 2026-04-14 09:27 | -0.12932 | 109.45698 | 40830 ft | 442 kts | 121° |
| 2026-04-14 09:28 | -0.16246 | 109.50889 | 40829 ft | 443 kts | 121° |
| 2026-04-14 09:28 | -0.19536 | 109.56104 | 40841 ft | 444 kts | 121° |
| 2026-04-14 09:29 | -0.22811 | 109.61339 | 40835 ft | 444 kts | 120° |
| 2026-04-14 09:29 | -0.26071 | 109.66563 | 40835 ft | 446 kts | 120° |
| 2026-04-14 09:30 | -0.29353 | 109.71824 | 40838 ft | 446 kts | 121° |
| 2026-04-14 09:30 | -0.32642 | 109.77092 | 40834 ft | 447 kts | 121° |
| 2026-04-14 09:31 | -0.35941 | 109.82378 | 40842 ft | 448 kts | 121° |
| 2026-04-14 09:31 | -0.39244 | 109.87667 | 40841 ft | 449 kts | 121° |
| 2026-04-14 09:32 | -0.42551 | 109.92964 | 40832 ft | 450 kts | 121° |
| 2026-04-14 09:33 | -0.47521 | 110.00926 | 40828 ft | 450 kts | 121° |
| 2026-04-14 09:33 | -0.50818 | 110.06208 | 40839 ft | 450 kts | 121° |
| 2026-04-14 09:34 | -0.54136 | 110.11524 | 40846 ft | 451 kts | 121° |
| 2026-04-14 09:34 | -0.57456 | 110.16843 | 40841 ft | 451 kts | 121° |
| 2026-04-14 09:35 | -0.60778 | 110.22166 | 40845 ft | 452 kts | 121° |
| 2026-04-14 09:35 | -0.64107 | 110.27499 | 40847 ft | 452 kts | 121° |
| 2026-04-14 09:36 | -0.67438 | 110.32836 | 40849 ft | 452 kts | 121° |
| 2026-04-14 09:36 | -0.70748 | 110.38141 | 40835 ft | 453 kts | 121° |
| 2026-04-14 09:37 | -0.74082 | 110.43483 | 40840 ft | 453 kts | 121° |
| 2026-04-14 09:37 | -0.77419 | 110.48830 | 40842 ft | 453 kts | 121° |
| 2026-04-14 09:38 | -0.80749 | 110.54167 | 40849 ft | 453 kts | 121° |
| 2026-04-14 09:38 | -0.84064 | 110.59479 | 40851 ft | 453 kts | 121° |
| 2026-04-14 09:39 | -0.87394 | 110.64819 | 40843 ft | 453 kts | 122° |
| 2026-04-14 09:39 | -0.90736 | 110.70173 | 40850 ft | 453 kts | 122° |
| 2026-04-14 09:40 | -0.94089 | 110.75504 | 40854 ft | 453 kts | 122° |
| 2026-04-14 09:40 | -0.97464 | 110.80838 | 40847 ft | 453 kts | 122° |
| 2026-04-14 09:41 | -1.00816 | 110.86139 | 40860 ft | 453 kts | 122° |
| 2026-04-14 09:41 | -1.04188 | 110.91479 | 40858 ft | 454 kts | 122° |
| 2026-04-14 09:42 | -1.07560 | 110.96821 | 40861 ft | 454 kts | 122° |
| 2026-04-14 09:42 | -1.10938 | 111.02173 | 40862 ft | 455 kts | 122° |
| 2026-04-14 09:43 | -1.14311 | 111.07519 | 40861 ft | 455 kts | 122° |
| 2026-04-14 09:43 | -1.17667 | 111.12836 | 40863 ft | 456 kts | 122° |
| 2026-04-14 09:44 | -1.21051 | 111.18198 | 40861 ft | 456 kts | 122° |
| 2026-04-14 09:44 | -1.24441 | 111.23571 | 40862 ft | 456 kts | 122° |
| 2026-04-14 09:45 | -1.27831 | 111.28943 | 40858 ft | 457 kts | 122° |
| 2026-04-14 09:45 | -1.31223 | 111.34321 | 40860 ft | 457 kts | 122° |
| 2026-04-14 09:46 | -1.34621 | 111.39706 | 40861 ft | 458 kts | 122° |
| 2026-04-14 09:46 | -1.38016 | 111.45088 | 40862 ft | 458 kts | 122° |
| 2026-04-14 09:47 | -1.41408 | 111.50467 | 40861 ft | 458 kts | 122° |
| 2026-04-14 09:47 | -1.44786 | 111.55823 | 40852 ft | 458 kts | 122° |
| 2026-04-14 09:48 | -1.48180 | 111.61208 | 40854 ft | 457 kts | 122° |
| 2026-04-14 09:48 | -1.51562 | 111.66593 | 40851 ft | 457 kts | 121° |
| 2026-04-14 09:49 | -1.54940 | 111.71977 | 40849 ft | 457 kts | 121° |
| 2026-04-14 09:49 | -1.58314 | 111.77356 | 40852 ft | 457 kts | 121° |
| 2026-04-14 09:50 | -1.61670 | 111.82704 | 40851 ft | 456 kts | 121° |
| 2026-04-14 09:50 | -1.65043 | 111.88080 | 40846 ft | 456 kts | 121° |
| 2026-04-14 09:51 | -1.68412 | 111.93451 | 40849 ft | 456 kts | 121° |
| 2026-04-14 09:51 | -1.71780 | 111.98820 | 40842 ft | 455 kts | 121° |
| 2026-04-14 09:52 | -1.75143 | 112.04181 | 40841 ft | 455 kts | 121° |
| 2026-04-14 09:52 | -1.78478 | 112.09498 | 40842 ft | 454 kts | 121° |
| 2026-04-14 09:53 | -1.81831 | 112.14844 | 40837 ft | 453 kts | 121° |
| 2026-04-14 09:53 | -1.85180 | 112.20184 | 40841 ft | 453 kts | 121° |
| 2026-04-14 09:54 | -1.88523 | 112.25515 | 40838 ft | 452 kts | 121° |
| 2026-04-14 09:54 | -1.91864 | 112.30844 | 40835 ft | 452 kts | 121° |
| 2026-04-14 09:55 | -1.95202 | 112.36168 | 40835 ft | 452 kts | 121° |
| 2026-04-14 09:55 | -1.98542 | 112.41496 | 40831 ft | 452 kts | 121° |
| 2026-04-14 09:56 | -2.01879 | 112.46819 | 40832 ft | 452 kts | 121° |
| 2026-04-14 09:56 | -2.05221 | 112.52151 | 40829 ft | 453 kts | 121° |
| 2026-04-14 09:57 | -2.08569 | 112.57494 | 40832 ft | 454 kts | 121° |
| 2026-04-14 09:57 | -2.11902 | 112.62812 | 40829 ft | 454 kts | 121° |
| 2026-04-14 09:58 | -2.15264 | 112.68178 | 40830 ft | 455 kts | 121° |
| 2026-04-14 09:58 | -2.18632 | 112.73553 | 40828 ft | 456 kts | 121° |
| 2026-04-14 09:59 | -2.22004 | 112.78936 | 40828 ft | 457 kts | 121° |
| 2026-04-14 09:59 | -2.25380 | 112.84325 | 40831 ft | 457 kts | 121° |
| 2026-04-14 10:00 | -2.28756 | 112.89715 | 40828 ft | 457 kts | 121° |
| 2026-04-14 10:00 | -2.32112 | 112.95073 | 40830 ft | 457 kts | 121° |
| 2026-04-14 10:01 | -2.35496 | 113.00478 | 40829 ft | 457 kts | 121° |
| 2026-04-14 10:01 | -2.38873 | 113.05872 | 40831 ft | 457 kts | 121° |
| 2026-04-14 10:02 | -2.42253 | 113.11270 | 40831 ft | 458 kts | 121° |
| 2026-04-14 10:02 | -2.45630 | 113.16665 | 40833 ft | 458 kts | 121° |
| 2026-04-14 10:03 | -2.49009 | 113.22065 | 40834 ft | 458 kts | 121° |
| 2026-04-14 10:03 | -2.51817 | 113.26552 | 40836 ft | 458 kts | 121° |
| 2026-04-14 10:04 | -2.55201 | 113.31960 | 40836 ft | 458 kts | 121° |
| 2026-04-14 10:04 | -2.58584 | 113.37368 | 40835 ft | 459 kts | 121° |
| 2026-04-14 10:05 | -2.61971 | 113.42778 | 40830 ft | 459 kts | 121° |
| 2026-04-14 10:05 | -2.65352 | 113.48161 | 40834 ft | 459 kts | 121° |
| 2026-04-14 10:06 | -2.68756 | 113.53580 | 40841 ft | 459 kts | 121° |
| 2026-04-14 10:06 | -2.72160 | 113.59001 | 40835 ft | 459 kts | 121° |
| 2026-04-14 10:07 | -2.75544 | 113.64394 | 40841 ft | 459 kts | 121° |
| 2026-04-14 10:07 | -2.78941 | 113.69809 | 40838 ft | 459 kts | 121° |
| 2026-04-14 10:08 | -2.82341 | 113.75229 | 40836 ft | 460 kts | 121° |
| 2026-04-14 10:08 | -2.85737 | 113.80644 | 40840 ft | 460 kts | 121° |
| 2026-04-14 10:09 | -2.89139 | 113.86068 | 40836 ft | 460 kts | 121° |
| 2026-04-14 10:09 | -2.92544 | 113.91499 | 40842 ft | 460 kts | 122° |
| 2026-04-14 10:10 | -2.95948 | 113.96927 | 40836 ft | 461 kts | 122° |
| 2026-04-14 10:10 | -2.99356 | 114.02364 | 40847 ft | 461 kts | 122° |
| 2026-04-14 10:11 | -3.02766 | 114.07804 | 40835 ft | 461 kts | 122° |
| 2026-04-14 10:11 | -3.06176 | 114.13245 | 40838 ft | 461 kts | 122° |
| 2026-04-14 10:12 | -3.09564 | 114.18653 | 40837 ft | 461 kts | 122° |
| 2026-04-14 10:12 | -3.12975 | 114.24097 | 40842 ft | 461 kts | 122° |
| 2026-04-14 10:13 | -3.16381 | 114.29534 | 40834 ft | 461 kts | 122° |
| 2026-04-14 10:13 | -3.19781 | 114.34963 | 40839 ft | 460 kts | 122° |
| 2026-04-14 10:14 | -3.23182 | 114.40393 | 40837 ft | 460 kts | 122° |
| 2026-04-14 10:14 | -3.26554 | 114.45779 | 40844 ft | 459 kts | 122° |
| 2026-04-14 10:15 | -3.29942 | 114.51191 | 40835 ft | 459 kts | 122° |
| 2026-04-14 10:15 | -3.33327 | 114.56599 | 40837 ft | 458 kts | 122° |
| 2026-04-14 10:16 | -3.36707 | 114.62000 | 40854 ft | 458 kts | 122° |
| 2026-04-14 10:16 | -3.40083 | 114.67398 | 40846 ft | 457 kts | 122° |
| 2026-04-14 10:17 | -3.43293 | 114.72896 | 40839 ft | 457 kts | 114° |
| 2026-04-14 10:17 | -3.45089 | 114.78977 | 40866 ft | 456 kts | 102° |
| 2026-04-14 10:18 | -3.47016 | 114.88313 | 40858 ft | 457 kts | 101° |
| 2026-04-14 10:18 | -3.48318 | 114.94499 | 40857 ft | 457 kts | 102° |
| 2026-04-14 10:19 | -3.49657 | 115.00722 | 40849 ft | 457 kts | 102° |
| 2026-04-14 10:19 | -3.51008 | 115.06952 | 40858 ft | 457 kts | 102° |
| 2026-04-14 10:20 | -3.52359 | 115.13177 | 40871 ft | 457 kts | 102° |
| 2026-04-14 10:20 | -3.53706 | 115.19397 | 40859 ft | 457 kts | 102° |
| 2026-04-14 10:21 | -3.55044 | 115.25576 | 40857 ft | 457 kts | 102° |
| 2026-04-14 10:21 | -3.56390 | 115.31797 | 40874 ft | 457 kts | 101° |
| 2026-04-14 10:22 | -3.57734 | 115.38011 | 40857 ft | 457 kts | 101° |
| 2026-04-14 10:22 | -3.59078 | 115.44229 | 40858 ft | 456 kts | 101° |
| 2026-04-14 10:23 | -3.60419 | 115.50437 | 40870 ft | 456 kts | 101° |
| 2026-04-14 10:23 | -3.61759 | 115.56636 | 40865 ft | 455 kts | 101° |
| 2026-04-14 10:24 | -3.63097 | 115.62833 | 40862 ft | 455 kts | 101° |
| 2026-04-14 10:24 | -3.64427 | 115.68994 | 40865 ft | 455 kts | 101° |
| 2026-04-14 10:25 | -3.65765 | 115.75190 | 40855 ft | 455 kts | 101° |
| 2026-04-14 10:25 | -3.67100 | 115.81376 | 40868 ft | 454 kts | 101° |
| 2026-04-14 10:26 | -3.68435 | 115.87562 | 40855 ft | 454 kts | 101° |
| 2026-04-14 10:26 | -3.69770 | 115.93757 | 40859 ft | 454 kts | 101° |
| 2026-04-14 10:27 | -3.71104 | 115.99945 | 40870 ft | 454 kts | 101° |
| 2026-04-14 10:27 | -3.72430 | 116.06104 | 40869 ft | 455 kts | 101° |
| 2026-04-14 10:28 | -3.73767 | 116.12306 | 40862 ft | 455 kts | 101° |
| 2026-04-14 10:28 | -3.75101 | 116.18504 | 40860 ft | 455 kts | 101° |
| 2026-04-14 10:29 | -3.76428 | 116.24667 | 40860 ft | 455 kts | 101° |
| 2026-04-14 10:29 | -3.77763 | 116.30875 | 40862 ft | 456 kts | 101° |
| 2026-04-14 10:30 | -3.79101 | 116.37096 | 40864 ft | 456 kts | 101° |
| 2026-04-14 10:30 | -3.80427 | 116.43267 | 40867 ft | 456 kts | 101° |
| 2026-04-14 10:31 | -3.81762 | 116.49477 | 40864 ft | 456 kts | 101° |
| 2026-04-14 10:31 | -3.83096 | 116.55685 | 40872 ft | 456 kts | 101° |
| 2026-04-14 10:32 | -3.84430 | 116.61895 | 40868 ft | 456 kts | 101° |
| 2026-04-14 10:32 | -3.85762 | 116.68102 | 40871 ft | 455 kts | 101° |
| 2026-04-14 10:33 | -3.87092 | 116.74299 | 40869 ft | 455 kts | 101° |
| 2026-04-14 10:33 | -3.88414 | 116.80461 | 40868 ft | 455 kts | 101° |
| 2026-04-14 10:34 | -3.90407 | 116.89757 | 40867 ft | 455 kts | 101° |
| 2026-04-14 10:35 | -3.91737 | 116.95959 | 40869 ft | 454 kts | 101° |
| 2026-04-14 10:35 | -3.93064 | 117.02157 | 40868 ft | 454 kts | 101° |
| 2026-04-14 10:36 | -3.94390 | 117.08349 | 40869 ft | 454 kts | 101° |
| 2026-04-14 10:36 | -3.95707 | 117.14503 | 40873 ft | 454 kts | 101° |
| 2026-04-14 10:37 | -3.97035 | 117.20711 | 40872 ft | 455 kts | 101° |
| 2026-04-14 10:37 | -3.98630 | 117.26791 | 40862 ft | 455 kts | 112° |
| 2026-04-14 10:38 | -4.01296 | 117.32555 | 40870 ft | 456 kts | 115° |
| 2026-04-14 10:38 | -4.04051 | 117.38274 | 40871 ft | 456 kts | 115° |
| 2026-04-14 10:39 | -4.06780 | 117.44021 | 40873 ft | 456 kts | 114° |
| 2026-04-14 10:39 | -4.09479 | 117.49779 | 40874 ft | 457 kts | 114° |
| 2026-04-14 10:40 | -4.12157 | 117.55518 | 40874 ft | 457 kts | 114° |
| 2026-04-14 10:40 | -4.14850 | 117.61291 | 40877 ft | 457 kts | 114° |
| 2026-04-14 10:41 | -4.17544 | 117.67065 | 40874 ft | 458 kts | 114° |
| 2026-04-14 10:41 | -4.20241 | 117.72847 | 40875 ft | 458 kts | 114° |
| 2026-04-14 10:42 | -4.22942 | 117.78637 | 40877 ft | 458 kts | 114° |
| 2026-04-14 10:42 | -4.25630 | 117.84403 | 40876 ft | 459 kts | 114° |
| 2026-04-14 10:43 | -4.28332 | 117.90198 | 40877 ft | 459 kts | 114° |
| 2026-04-14 10:43 | -4.31037 | 117.96001 | 40875 ft | 460 kts | 114° |
| 2026-04-14 10:44 | -4.33743 | 118.01808 | 40876 ft | 460 kts | 114° |
| 2026-04-14 10:44 | -4.36448 | 118.07615 | 40870 ft | 460 kts | 116° |
| 2026-04-14 10:45 | -4.39133 | 118.13380 | 40874 ft | 458 kts | 115° |
| 2026-04-14 10:45 | -4.41822 | 118.19155 | 40873 ft | 456 kts | 115° |
| 2026-04-14 10:46 | -4.44502 | 118.24909 | 40874 ft | 455 kts | 115° |
| 2026-04-14 10:46 | -4.47173 | 118.30648 | 40874 ft | 454 kts | 115° |
| 2026-04-14 10:47 | -4.49841 | 118.36383 | 40878 ft | 454 kts | 115° |
| 2026-04-14 10:47 | -4.52494 | 118.42086 | 40876 ft | 453 kts | 115° |
| 2026-04-14 10:48 | -4.55158 | 118.47813 | 40878 ft | 453 kts | 115° |
| 2026-04-14 10:48 | -4.57819 | 118.53536 | 40878 ft | 453 kts | 115° |
| 2026-04-14 10:49 | -4.60288 | 118.58847 | 40876 ft | 453 kts | 115° |
| 2026-04-14 10:49 | -4.62947 | 118.64568 | 40875 ft | 452 kts | 115° |
| 2026-04-14 10:50 | -4.65589 | 118.70254 | 40880 ft | 452 kts | 115° |
| 2026-04-14 10:50 | -4.68242 | 118.75965 | 40878 ft | 451 kts | 115° |
| 2026-04-14 10:51 | -4.70896 | 118.81679 | 40881 ft | 451 kts | 115° |
| 2026-04-14 10:51 | -4.73540 | 118.87374 | 40878 ft | 451 kts | 115° |
| 2026-04-14 10:52 | -4.76174 | 118.93049 | 40881 ft | 451 kts | 115° |
| 2026-04-14 10:52 | -4.78822 | 118.98754 | 40879 ft | 451 kts | 115° |
| 2026-04-14 10:53 | -4.81022 | 119.03498 | 40878 ft | 450 kts | 115° |
| 2026-04-14 10:53 | -4.83667 | 119.09200 | 40880 ft | 450 kts | 115° |
| 2026-04-14 10:54 | -4.86311 | 119.14900 | 40877 ft | 450 kts | 115° |
| 2026-04-14 10:54 | -4.88953 | 119.20600 | 40879 ft | 450 kts | 115° |
| 2026-04-14 10:55 | -4.91596 | 119.26302 | 40878 ft | 450 kts | 115° |
| 2026-04-14 10:55 | -4.94216 | 119.31958 | 40879 ft | 450 kts | 115° |
| 2026-04-14 10:56 | -4.96856 | 119.37657 | 40883 ft | 450 kts | 115° |
| 2026-04-14 10:56 | -4.99501 | 119.43371 | 40882 ft | 450 kts | 115° |
| 2026-04-14 10:57 | -5.02144 | 119.49078 | 40891 ft | 451 kts | 115° |
| 2026-04-14 10:57 | -5.03961 | 119.55076 | 40897 ft | 451 kts | 97° |
| 2026-04-14 10:58 | -5.04352 | 119.61313 | 40906 ft | 452 kts | 92° |
| 2026-04-14 10:58 | -5.04611 | 119.67629 | 40913 ft | 453 kts | 92° |
| 2026-04-14 10:59 | -5.04897 | 119.73942 | 40919 ft | 453 kts | 93° |
| 2026-04-14 10:59 | -5.05212 | 119.80263 | 40922 ft | 454 kts | 93° |
| 2026-04-14 11:00 | -5.05539 | 119.86595 | 40928 ft | 454 kts | 93° |
| 2026-04-14 11:00 | -5.05868 | 119.92933 | 40930 ft | 454 kts | 93° |
| 2026-04-14 11:01 | -5.06192 | 119.99218 | 40935 ft | 454 kts | 93° |
| 2026-04-14 11:01 | -5.06517 | 120.05549 | 40934 ft | 454 kts | 93° |
| 2026-04-14 11:02 | -5.06841 | 120.11873 | 40925 ft | 454 kts | 93° |
| 2026-04-14 11:02 | -5.07164 | 120.18190 | 40924 ft | 453 kts | 93° |
| 2026-04-14 11:03 | -5.07486 | 120.24505 | 40919 ft | 453 kts | 93° |
| 2026-04-14 11:03 | -5.07808 | 120.30817 | 40911 ft | 453 kts | 93° |
| 2026-04-14 11:04 | -5.08128 | 120.37121 | 40907 ft | 452 kts | 93° |
| 2026-04-14 11:04 | -5.08448 | 120.43428 | 40905 ft | 452 kts | 93° |
| 2026-04-14 11:05 | -5.08767 | 120.49716 | 40899 ft | 451 kts | 93° |
| 2026-04-14 11:05 | -5.09082 | 120.55962 | 40901 ft | 451 kts | 93° |
| 2026-04-14 11:06 | -5.09399 | 120.62246 | 40900 ft | 451 kts | 93° |
| 2026-04-14 11:06 | -5.09716 | 120.68535 | 40899 ft | 451 kts | 93° |
| 2026-04-14 11:07 | -5.10032 | 120.74824 | 40896 ft | 451 kts | 93° |
| 2026-04-14 11:07 | -5.10345 | 120.81068 | 40898 ft | 451 kts | 93° |
| 2026-04-14 11:08 | -5.10659 | 120.87347 | 40899 ft | 451 kts | 93° |
| 2026-04-14 11:08 | -5.10973 | 120.93629 | 40898 ft | 451 kts | 93° |
| 2026-04-14 11:09 | -5.11287 | 120.99923 | 40891 ft | 451 kts | 93° |
| 2026-04-14 11:09 | -5.11601 | 121.06222 | 40888 ft | 452 kts | 93° |
| 2026-04-14 11:10 | -5.12069 | 121.15667 | 40888 ft | 452 kts | 93° |
| 2026-04-14 11:10 | -5.12380 | 121.21931 | 40892 ft | 452 kts | 93° |
| 2026-04-14 11:11 | -5.12691 | 121.28232 | 40891 ft | 452 kts | 93° |
| 2026-04-14 11:11 | -5.13003 | 121.34555 | 40889 ft | 453 kts | 93° |
| 2026-04-14 11:12 | -5.13313 | 121.40865 | 40894 ft | 453 kts | 93° |
| 2026-04-14 11:12 | -5.13624 | 121.47182 | 40892 ft | 453 kts | 93° |
| 2026-04-14 11:13 | -5.13933 | 121.53494 | 40896 ft | 453 kts | 93° |
| 2026-04-14 11:13 | -5.14240 | 121.59767 | 40897 ft | 453 kts | 93° |
| 2026-04-14 11:14 | -5.14549 | 121.66083 | 40896 ft | 453 kts | 93° |
| 2026-04-14 11:14 | -5.14857 | 121.72401 | 40902 ft | 453 kts | 93° |
| 2026-04-14 11:15 | -5.15164 | 121.78718 | 40904 ft | 453 kts | 93° |
| 2026-04-14 11:15 | -5.15468 | 121.84995 | 40905 ft | 453 kts | 93° |
| 2026-04-14 11:16 | -5.15774 | 121.91306 | 40905 ft | 453 kts | 93° |
| 2026-04-14 11:16 | -5.16079 | 121.97622 | 40904 ft | 453 kts | 93° |
| 2026-04-14 11:17 | -5.16384 | 122.03940 | 40907 ft | 453 kts | 93° |
| 2026-04-14 11:17 | -5.16688 | 122.10262 | 40907 ft | 453 kts | 93° |
| 2026-04-14 11:18 | -5.16991 | 122.16570 | 40908 ft | 453 kts | 93° |
| 2026-04-14 11:18 | -5.17293 | 122.22875 | 40905 ft | 452 kts | 93° |
| 2026-04-14 11:19 | -5.17593 | 122.29140 | 40908 ft | 452 kts | 93° |
| 2026-04-14 11:19 | -5.17895 | 122.35450 | 40911 ft | 452 kts | 93° |
| 2026-04-14 11:20 | -5.18195 | 122.41763 | 40908 ft | 452 kts | 93° |
| 2026-04-14 11:20 | -5.18495 | 122.48067 | 40912 ft | 452 kts | 93° |
| 2026-04-14 11:21 | -5.18794 | 122.54380 | 40915 ft | 453 kts | 93° |
| 2026-04-14 11:21 | -5.19093 | 122.60685 | 40917 ft | 452 kts | 93° |
| 2026-04-14 11:22 | -5.19391 | 122.66992 | 40917 ft | 452 kts | 93° |
| 2026-04-14 11:22 | -5.19688 | 122.73297 | 40918 ft | 452 kts | 93° |
| 2026-04-14 11:23 | -5.19982 | 122.79548 | 40917 ft | 451 kts | 93° |
| 2026-04-14 11:23 | -5.20277 | 122.85836 | 40921 ft | 451 kts | 93° |
| 2026-04-14 11:24 | -5.20572 | 122.92121 | 40914 ft | 451 kts | 93° |
| 2026-04-14 11:24 | -5.20866 | 122.98415 | 40921 ft | 451 kts | 93° |
| 2026-04-14 11:25 | -5.21159 | 123.04690 | 40922 ft | 451 kts | 93° |
| 2026-04-14 11:25 | -5.21451 | 123.10979 | 40919 ft | 451 kts | 93° |
| 2026-04-14 11:26 | -5.21743 | 123.17265 | 40925 ft | 451 kts | 93° |
| 2026-04-14 11:26 | -5.22035 | 123.23554 | 40920 ft | 450 kts | 93° |
| 2026-04-14 11:27 | -5.22323 | 123.29789 | 40917 ft | 450 kts | 93° |
| 2026-04-14 11:27 | -5.22612 | 123.36052 | 40917 ft | 449 kts | 93° |
| 2026-04-14 11:28 | -5.22901 | 123.42323 | 40916 ft | 449 kts | 93° |
| 2026-04-14 11:28 | -5.23188 | 123.48575 | 40917 ft | 448 kts | 93° |
| 2026-04-14 11:29 | -5.23474 | 123.54818 | 40917 ft | 448 kts | 93° |
| 2026-04-14 11:29 | -5.23760 | 123.61070 | 40918 ft | 448 kts | 93° |
| 2026-04-14 11:30 | -5.24043 | 123.67269 | 40918 ft | 447 kts | 93° |
| 2026-04-14 11:30 | -5.24328 | 123.73516 | 40917 ft | 447 kts | 93° |
| 2026-04-14 11:31 | -5.24611 | 123.79747 | 40918 ft | 447 kts | 93° |
| 2026-04-14 11:31 | -5.24894 | 123.85978 | 40917 ft | 447 kts | 93° |
| 2026-04-14 11:32 | -5.25176 | 123.92216 | 40917 ft | 447 kts | 93° |
| 2026-04-14 11:32 | -5.25456 | 123.98414 | 40921 ft | 447 kts | 93° |
| 2026-04-14 11:33 | -5.25737 | 124.04649 | 40919 ft | 447 kts | 93° |
| 2026-04-14 11:34 | -5.26155 | 124.13955 | 40915 ft | 446 kts | 93° |
| 2026-04-14 11:34 | -5.26434 | 124.20192 | 40916 ft | 446 kts | 93° |
| 2026-04-14 11:35 | -5.26734 | 124.26425 | 40916 ft | 446 kts | 93° |
| 2026-04-14 11:35 | -5.27061 | 124.32604 | 40914 ft | 446 kts | 94° |
| 2026-04-14 11:36 | -5.27392 | 124.38828 | 40919 ft | 446 kts | 93° |
| 2026-04-14 11:36 | -5.27717 | 124.45042 | 40918 ft | 446 kts | 93° |
| 2026-04-14 11:37 | -5.28041 | 124.51265 | 40920 ft | 446 kts | 93° |
| 2026-04-14 11:37 | -5.28362 | 124.57481 | 40917 ft | 446 kts | 93° |
| 2026-04-14 11:38 | -5.28683 | 124.63698 | 40920 ft | 446 kts | 93° |
| 2026-04-14 11:38 | -5.29001 | 124.69867 | 40919 ft | 445 kts | 93° |
| 2026-04-14 11:39 | -5.29320 | 124.76074 | 40921 ft | 445 kts | 93° |
| 2026-04-14 11:39 | -5.29585 | 124.81239 | 40920 ft | 445 kts | 93° |
| 2026-04-14 11:40 | -5.29903 | 124.87445 | 40921 ft | 445 kts | 93° |
| 2026-04-14 11:40 | -5.30220 | 124.93639 | 40921 ft | 444 kts | 93° |
| 2026-04-14 11:41 | -5.30537 | 124.99836 | 40921 ft | 444 kts | 93° |
| 2026-04-14 11:41 | -5.30850 | 125.05986 | 40918 ft | 444 kts | 93° |
| 2026-04-14 11:42 | -5.31165 | 125.12175 | 40922 ft | 444 kts | 93° |
| 2026-04-14 11:42 | -5.31479 | 125.18363 | 40922 ft | 443 kts | 93° |
| 2026-04-14 11:43 | -5.31792 | 125.24535 | 40918 ft | 443 kts | 93° |
| 2026-04-14 11:43 | -5.32104 | 125.30715 | 40919 ft | 443 kts | 93° |
| 2026-04-14 11:44 | -5.32416 | 125.36890 | 40925 ft | 443 kts | 93° |
| 2026-04-14 11:44 | -5.32724 | 125.43024 | 40922 ft | 442 kts | 93° |
| 2026-04-14 11:45 | -5.33035 | 125.49195 | 40922 ft | 442 kts | 93° |
| 2026-04-14 11:45 | -5.33343 | 125.55354 | 40925 ft | 442 kts | 93° |
| 2026-04-14 11:46 | -5.33652 | 125.61524 | 40924 ft | 442 kts | 93° |
| 2026-04-14 11:46 | -5.33960 | 125.67683 | 40924 ft | 442 kts | 93° |
| 2026-04-14 11:47 | -5.34265 | 125.73798 | 40923 ft | 441 kts | 93° |
| 2026-04-14 11:47 | -5.34571 | 125.79957 | 40923 ft | 441 kts | 93° |
| 2026-04-14 11:48 | -5.34877 | 125.86107 | 40922 ft | 441 kts | 93° |
| 2026-04-14 11:48 | -5.35182 | 125.92261 | 40921 ft | 441 kts | 93° |
| 2026-04-14 11:49 | -5.35486 | 125.98414 | 40923 ft | 441 kts | 93° |
| 2026-04-14 11:49 | -5.35788 | 126.04524 | 40922 ft | 441 kts | 93° |
| 2026-04-14 11:50 | -5.36090 | 126.10670 | 40920 ft | 440 kts | 93° |
| 2026-04-14 11:50 | -5.36392 | 126.16808 | 40922 ft | 440 kts | 93° |
| 2026-04-14 11:51 | -5.36844 | 126.26032 | 40922 ft | 440 kts | 93° |
| 2026-04-14 11:51 | -5.37145 | 126.32172 | 40924 ft | 440 kts | 93° |
| 2026-04-14 11:52 | -5.37442 | 126.38265 | 40924 ft | 440 kts | 93° |
| 2026-04-14 11:52 | -5.37742 | 126.44422 | 40923 ft | 440 kts | 93° |
| 2026-04-14 11:53 | -5.38039 | 126.50528 | 40919 ft | 440 kts | 93° |
| 2026-04-14 11:53 | -5.38337 | 126.56669 | 40923 ft | 440 kts | 93° |
| 2026-04-14 11:54 | -5.38634 | 126.62810 | 40924 ft | 440 kts | 93° |
| 2026-04-14 11:54 | -5.38930 | 126.68944 | 40923 ft | 440 kts | 93° |
| 2026-04-14 11:55 | -5.39226 | 126.75075 | 40924 ft | 440 kts | 93° |
| 2026-04-14 11:55 | -5.39519 | 126.81175 | 40924 ft | 440 kts | 93° |
| 2026-04-14 11:56 | -5.39814 | 126.87312 | 40924 ft | 440 kts | 92° |
| 2026-04-14 11:56 | -5.40107 | 126.93438 | 40923 ft | 439 kts | 92° |
| 2026-04-14 11:57 | -5.40400 | 126.99564 | 40923 ft | 439 kts | 93° |
| 2026-04-14 11:57 | -5.40692 | 127.05688 | 40921 ft | 439 kts | 93° |
| 2026-04-14 11:58 | -5.40982 | 127.11774 | 40923 ft | 439 kts | 93° |
| 2026-04-14 11:58 | -5.41273 | 127.17897 | 40923 ft | 439 kts | 92° |
| 2026-04-14 11:59 | -5.41563 | 127.24014 | 40920 ft | 439 kts | 93° |
| 2026-04-14 11:59 | -5.41853 | 127.30148 | 40921 ft | 439 kts | 93° |
| 2026-04-14 12:00 | -5.42142 | 127.36266 | 40922 ft | 439 kts | 93° |
| 2026-04-14 12:00 | -5.42430 | 127.42381 | 40924 ft | 439 kts | 93° |
| 2026-04-14 12:01 | -5.42718 | 127.48508 | 40927 ft | 439 kts | 92° |
| 2026-04-14 12:01 | -5.43004 | 127.54628 | 40925 ft | 439 kts | 92° |
| 2026-04-14 12:02 | -5.43289 | 127.60717 | 40922 ft | 439 kts | 92° |
| 2026-04-14 12:02 | -5.43575 | 127.66840 | 40925 ft | 439 kts | 92° |
| 2026-04-14 12:03 | -5.43861 | 127.72963 | 40924 ft | 439 kts | 92° |
| 2026-04-14 12:03 | -5.44146 | 127.79095 | 40927 ft | 439 kts | 92° |
| 2026-04-14 12:04 | -5.44430 | 127.85215 | 40924 ft | 439 kts | 92° |
| 2026-04-14 12:04 | -5.44713 | 127.91342 | 40923 ft | 439 kts | 92° |
| 2026-04-14 12:05 | -5.44995 | 127.97455 | 40927 ft | 439 kts | 92° |
| 2026-04-14 12:05 | -5.45276 | 128.03542 | 40931 ft | 439 kts | 92° |
| 2026-04-14 12:06 | -5.45557 | 128.09664 | 40928 ft | 439 kts | 92° |
| 2026-04-14 12:06 | -5.45838 | 128.15782 | 40921 ft | 439 kts | 92° |
| 2026-04-14 12:07 | -5.46118 | 128.21902 | 40927 ft | 439 kts | 92° |
| 2026-04-14 12:07 | -5.46398 | 128.28022 | 40927 ft | 439 kts | 92° |
| 2026-04-14 12:08 | -5.46677 | 128.34147 | 40924 ft | 439 kts | 92° |
| 2026-04-14 12:08 | -5.46955 | 128.40258 | 40926 ft | 438 kts | 92° |
| 2026-04-14 12:09 | -5.47231 | 128.46341 | 40925 ft | 438 kts | 92° |
| 2026-04-14 12:09 | -5.47508 | 128.52455 | 40927 ft | 438 kts | 92° |
| 2026-04-14 12:10 | -5.47784 | 128.58569 | 40925 ft | 438 kts | 92° |
| 2026-04-14 12:10 | -5.48060 | 128.64699 | 40924 ft | 438 kts | 92° |
| 2026-04-14 12:11 | -5.48335 | 128.70811 | 40926 ft | 438 kts | 92° |
| 2026-04-14 12:11 | -5.48609 | 128.76916 | 40926 ft | 438 kts | 92° |
| 2026-04-14 12:12 | -5.48881 | 128.82990 | 40927 ft | 438 kts | 92° |
| 2026-04-14 12:12 | -5.49154 | 128.89099 | 40926 ft | 438 kts | 92° |
| 2026-04-14 12:13 | -5.49426 | 128.95205 | 40927 ft | 438 kts | 92° |
| 2026-04-14 12:13 | -5.49697 | 129.01308 | 40930 ft | 438 kts | 92° |
| 2026-04-14 12:14 | -5.49968 | 129.07410 | 40928 ft | 438 kts | 92° |
| 2026-04-14 12:14 | -5.50238 | 129.13509 | 40927 ft | 437 kts | 92° |
| 2026-04-14 12:15 | -5.50507 | 129.19605 | 40928 ft | 437 kts | 92° |
| 2026-04-14 12:15 | -5.50775 | 129.25682 | 40929 ft | 437 kts | 92° |
| 2026-04-14 12:16 | -5.51042 | 129.31769 | 40928 ft | 437 kts | 92° |
| 2026-04-14 12:16 | -5.51310 | 129.37870 | 40926 ft | 437 kts | 92° |
| 2026-04-14 12:17 | -5.51576 | 129.43966 | 40926 ft | 437 kts | 92° |